Time;durP1;ratioP1;P1;durP2;ratioP2;P2;SDS_P1;SDS_P2;PMS_P1;PMS_P2;Temp;Humidity;BMP_temperature;BMP_pressure;BME280_temperature;BME280_humidity;BME280_pressure;Samples;Min_cycle;Max_cycle;Signal;HPM_P1;HPM_P2
2022/12/08 00:01:14;;;;;;;;;47.75;37.00;;;;;8.84;65.20;101077.31;4990257;28;45371;-75
2022/12/08 00:03:40;;;;;;;;;36.00;32.75;;;;;8.86;65.38;101070.19;5003679;28;45568;-75
2022/12/08 00:11:35;;;;;;;;;53.50;42.50;;;;;8.89;66.02;101074.56;5002261;28;47231;-75
2022/12/08 00:14:01;;;;;;;;;51.00;42.25;;;;;8.88;65.55;101063.03;5002327;28;45417;-75
2022/12/08 00:16:26;;;;;;;;;49.50;39.50;;;;;8.88;65.45;101060.38;5000399;28;45432;-75
2022/12/08 00:18:52;;;;;;;;;48.25;41.00;;;;;8.92;66.05;101058.53;5003959;28;45451;-75
2022/12/08 00:21:17;;;;;;;;;55.00;42.75;;;;;8.91;65.94;101051.47;5005735;28;45309;-75
2022/12/08 00:23:42;;;;;;;;;41.25;38.25;;;;;8.94;66.10;101050.50;5003878;28;45467;-75
2022/12/08 00:26:08;;;;;;;;;51.50;41.75;;;;;8.95;65.79;101041.63;5005175;28;46059;-75
2022/12/08 00:28:33;;;;;;;;;53.50;42.00;;;;;9.00;65.85;101043.25;5004233;28;45444;-75
2022/12/08 00:30:59;;;;;;;;;47.50;39.50;;;;;8.97;65.70;101034.47;5000861;28;45400;-75
2022/12/08 00:33:27;;;;;;;;;52.00;42.25;;;;;8.98;65.68;101033.56;4998347;28;45389;-75
2022/12/08 00:35:52;;;;;;;;;53.25;44.25;;;;;9.01;65.82;101037.03;5009343;28;45438;-75
2022/12/08 00:38:18;;;;;;;;;58.50;46.25;;;;;9.00;65.37;101032.59;5008571;28;45414;-75
2022/12/08 00:40:46;;;;;;;;;49.50;43.00;;;;;8.98;65.62;101039.75;5006342;28;45492;-75
2022/12/08 00:43:12;;;;;;;;;55.00;44.25;;;;;8.98;65.81;101030.91;5004572;28;45442;-75
2022/12/08 00:45:38;;;;;;;;;55.00;43.00;;;;;8.98;65.33;101037.09;5001653;28;45394;-75
2022/12/08 00:48:03;;;;;;;;;52.25;44.50;;;;;9.00;65.28;101026.41;5007639;28;46035;-75
2022/12/08 00:50:29;;;;;;;;;53.25;43.25;;;;;9.01;65.93;101031.72;5002834;28;45535;-75
2022/12/08 00:52:54;;;;;;;;;50.75;42.75;;;;;8.98;65.66;101017.59;5005722;28;45516;-75
2022/12/08 00:55:19;;;;;;;;;58.50;44.00;;;;;9.01;65.34;101020.19;5002658;28;47381;-75
2022/12/08 00:57:45;;;;;;;;;53.00;43.25;;;;;8.97;65.56;101023.81;5011824;28;46097;-74
2022/12/08 01:00:10;;;;;;;;;54.00;45.25;;;;;8.97;65.55;101019.38;5010044;28;45389;-75
2022/12/08 01:02:36;;;;;;;;;54.25;43.50;;;;;8.93;65.62;101007.03;5003289;28;45752;-75
2022/12/08 01:05:01;;;;;;;;;54.00;44.00;;;;;8.99;65.86;101014.03;5005100;28;45752;-75
2022/12/08 01:07:26;;;;;;;;;59.00;46.00;;;;;9.01;65.29;101009.53;5005368;28;45444;-75
2022/12/08 01:09:52;;;;;;;;;54.25;42.00;;;;;9.01;65.69;101010.41;5000801;28;45337;-75
2022/12/08 01:12:17;;;;;;;;;53.50;46.50;;;;;8.97;65.50;101005.19;5004936;28;45417;-75
2022/12/08 01:14:43;;;;;;;;;61.50;47.00;;;;;8.99;65.42;101017.56;5008479;28;45390;-75
2022/12/08 01:17:08;;;;;;;;;56.75;43.25;;;;;8.93;65.22;101015.03;5006259;28;46039;-75
2022/12/08 01:19:33;;;;;;;;;60.00;47.50;;;;;8.92;65.38;101010.63;5007715;28;45587;-75
2022/12/08 01:21:59;;;;;;;;;59.00;48.75;;;;;8.84;65.61;101002.78;5005847;28;45483;-75
2022/12/08 01:24:24;;;;;;;;;66.50;50.75;;;;;8.84;65.62;101007.25;5006307;28;45502;-75
2022/12/08 01:26:50;;;;;;;;;66.25;51.75;;;;;8.85;65.37;101006.31;5007912;28;45948;-75
2022/12/08 01:29:16;;;;;;;;;59.75;49.50;;;;;8.80;65.57;101003.75;5005399;28;46070;-75
2022/12/08 01:31:41;;;;;;;;;64.00;50.25;;;;;8.76;65.52;100995.88;5004630;28;45405;-75
2022/12/08 01:34:07;;;;;;;;;58.25;48.00;;;;;8.78;65.69;100996.72;4997207;28;45322;-75
2022/12/08 01:36:37;;;;;;;;;58.25;47.50;;;;;8.77;65.52;100992.28;5005423;28;47037;-75
2022/12/08 01:39:06;;;;;;;;;60.25;47.25;;;;;8.76;65.82;100990.56;5001733;28;46112;-75
2022/12/08 01:41:34;;;;;;;;;55.75;44.25;;;;;8.79;65.34;100993.16;5009579;28;46916;-75
2022/12/08 01:44:01;;;;;;;;;56.50;47.00;;;;;8.80;65.48;100986.91;5004953;28;46184;-75
2022/12/08 01:46:30;;;;;;;;;56.00;45.75;;;;;8.77;65.70;100982.53;5012470;28;46069;-75
2022/12/08 01:49:11;;;;;;;;;56.00;45.00;;;;;8.71;65.57;100980.88;5004485;28;46277;-75
2022/12/08 01:52:16;;;;;;;;;58.00;47.25;;;;;8.73;65.35;100993.28;5006166;28;45550;-75
2022/12/08 01:54:51;;;;;;;;;56.25;45.25;;;;;8.68;65.29;100988.91;4992880;28;45339;-75
2022/12/08 01:57:29;;;;;;;;;58.00;44.25;;;;;8.63;65.70;100985.47;5008522;28;46222;-75
2022/12/08 02:00:07;;;;;;;;;55.25;44.00;;;;;8.59;65.82;100991.78;5001497;28;45967;-75
2022/12/08 02:02:45;;;;;;;;;55.00;44.50;;;;;8.53;65.63;100986.56;5008690;28;45451;-75
2022/12/08 02:05:11;;;;;;;;;55.00;42.50;;;;;8.53;65.68;100990.09;5004037;28;45314;-75
2022/12/08 02:07:36;;;;;;;;;52.00;43.00;;;;;8.50;65.87;100976.88;5010216;28;45444;-75
2022/12/08 02:10:02;;;;;;;;;58.00;43.25;;;;;8.52;65.71;100971.53;5004915;28;45342;-75
2022/12/08 02:12:28;;;;;;;;;52.00;41.50;;;;;8.60;65.88;100982.00;5004416;28;45489;-75
2022/12/08 02:14:53;;;;;;;;;50.50;39.00;;;;;8.56;65.69;100977.66;5007048;28;45607;-75
2022/12/08 02:17:43;;;;;;;;;50.75;42.75;;;;;8.50;65.50;100975.97;5004684;28;45376;-75
2022/12/08 02:20:22;;;;;;;;;53.75;42.25;;;;;8.48;65.80;100980.47;5003302;28;46408;-75
2022/12/08 02:22:59;;;;;;;;;47.50;40.50;;;;;8.43;66.06;100982.34;5007465;28;45459;-75
2022/12/08 02:25:50;;;;;;;;;52.75;41.50;;;;;8.42;65.82;100984.09;5005364;28;45440;-76
2022/12/08 02:28:34;;;;;;;;;53.25;42.50;;;;;8.39;65.82;100981.50;5000244;28;47250;-75
2022/12/08 02:31:24;;;;;;;;;51.75;40.00;;;;;8.37;66.16;100974.44;4999571;28;45567;-75
2022/12/08 02:34:02;;;;;;;;;45.25;39.25;;;;;8.35;66.21;100977.13;5005269;28;45429;-75
2022/12/08 02:36:40;;;;;;;;;51.25;42.25;;;;;8.33;65.96;100969.16;5002172;28;47205;-75
2022/12/08 02:39:34;;;;;;;;;48.25;39.25;;;;;8.35;65.94;100970.03;5006474;28;46150;-75
2022/12/08 02:42:38;;;;;;;;;49.75;42.50;;;;;8.33;65.80;100965.63;5004907;28;45358;-75
2022/12/08 02:45:12;;;;;;;;;49.00;40.75;;;;;8.27;66.27;100956.00;5003802;28;45701;-75
2022/12/08 02:47:39;;;;;;;;;53.00;42.00;;;;;8.27;66.32;100953.34;5001778;28;45435;-75
2022/12/08 02:50:05;;;;;;;;;54.25;43.50;;;;;8.27;66.08;100957.78;5002130;28;46349;-75
2022/12/08 02:52:30;;;;;;;;;44.25;37.50;;;;;8.24;66.30;100953.41;5001474;28;45931;-75
2022/12/08 02:55:01;;;;;;;;;55.33;43.00;;;;;8.19;66.17;100949.09;4999184;28;45352;-75
2022/12/08 02:57:45;;;;;;;;;53.25;40.75;;;;;8.22;66.52;100944.59;5009779;28;45352;-75
2022/12/08 03:00:16;;;;;;;;;54.25;42.00;;;;;8.23;65.98;100943.66;5002583;28;45690;-75
2022/12/08 03:02:47;;;;;;;;;50.50;39.75;;;;;8.21;66.15;100937.50;5009233;28;46790;-75
2022/12/08 03:05:40;;;;;;;;;35.75;26.75;;;;;8.20;66.31;100949.03;5002297;28;45543;-75
2022/12/08 03:08:15;;;;;;;;;57.50;44.75;;;;;8.18;66.15;100942.88;4986504;28;45556;-75
2022/12/08 03:11:04;;;;;;;;;49.25;43.25;;;;;8.11;65.90;100933.28;5004283;28;45533;-75
2022/12/08 03:13:40;;;;;;;;;48.50;41.00;;;;;8.05;66.16;100922.75;4998054;28;45258;-75
2022/12/08 03:16:10;;;;;;;;;54.00;41.75;;;;;8.07;66.28;100926.25;5005676;28;45396;-76
2022/12/08 03:18:41;;;;;;;;;46.00;37.00;;;;;8.11;66.43;100928.81;5007347;28;45508;-75
2022/12/08 03:21:08;;;;;;;;;38.00;36.50;;;;;8.14;66.13;100923.44;5004725;28;45417;-75
2022/12/08 03:23:36;;;;;;;;;51.25;40.25;;;;;8.13;66.36;100913.72;5005821;28;46053;-75
2022/12/08 03:26:33;;;;;;;;;56.00;40.75;;;;;8.21;66.32;100910.91;5005123;28;45468;-76
2022/12/08 03:28:59;;;;;;;;;44.25;35.00;;;;;8.23;66.09;100919.72;5005347;28;45639;-74
2022/12/08 03:31:28;;;;;;;;;52.00;42.25;;;;;8.22;65.98;100910.00;5001087;28;46113;-75
2022/12/08 03:33:57;;;;;;;;;53.50;41.00;;;;;8.19;66.00;100903.88;5008539;28;45424;-75
2022/12/08 03:36:24;;;;;;;;;49.00;38.50;;;;;8.16;65.86;100900.34;4985774;28;46237;-75
2022/12/08 03:38:52;;;;;;;;;42.75;36.75;;;;;8.26;65.85;100901.06;5005643;28;45656;-75
2022/12/08 03:41:18;;;;;;;;;46.25;40.00;;;;;8.27;65.46;100893.94;5003918;28;46135;-75
2022/12/08 03:43:55;;;;;;;;;44.50;37.50;;;;;8.29;65.52;100897.47;5005314;28;45453;-75
2022/12/08 03:46:23;;;;;;;;;49.00;41.25;;;;;8.26;65.66;100893.06;5005194;28;45523;-75
2022/12/08 03:48:49;;;;;;;;;42.75;37.00;;;;;8.27;65.56;100881.53;5009524;28;45573;-75
2022/12/08 03:51:15;;;;;;;;;36.25;33.25;;;;;8.28;65.64;100879.75;5008852;28;45524;-75
2022/12/08 03:53:41;;;;;;;;;54.25;42.75;;;;;8.32;65.89;100878.78;5010375;28;45536;-76
2022/12/08 03:56:21;;;;;;;;;49.25;39.50;;;;;8.35;65.62;100874.28;5003665;28;45489;-75
2022/12/08 03:58:47;;;;;;;;;32.00;28.50;;;;;8.39;65.24;100883.06;5011008;28;46230;-75
2022/12/08 04:01:12;;;;;;;;;40.25;35.50;;;;;8.40;65.11;100882.13;5002635;28;46046;-75
2022/12/08 04:03:37;;;;;;;;;49.00;39.75;;;;;8.37;65.17;100870.69;4988365;28;45657;-75
2022/12/08 04:06:03;;;;;;;;;42.00;36.25;;;;;8.40;65.21;100876.81;5005582;28;45892;-75
2022/12/08 04:08:28;;;;;;;;;43.50;38.00;;;;;8.43;64.75;100883.91;5006575;28;45458;-75
2022/12/08 04:10:54;;;;;;;;;48.25;37.25;;;;;8.38;64.93;100875.97;5010052;28;45912;-75
2022/12/08 04:13:19;;;;;;;;;38.50;36.50;;;;;8.38;65.08;100870.66;5005397;28;45401;-75
2022/12/08 04:15:47;;;;;;;;;41.75;35.50;;;;;8.40;64.81;100879.47;5008051;28;45400;-75
2022/12/08 04:18:14;;;;;;;;;47.50;38.75;;;;;8.42;64.90;100866.16;5005452;28;45471;-75
2022/12/08 04:20:41;;;;;;;;;39.75;33.50;;;;;8.39;64.83;100871.56;5010631;28;46247;-75
2022/12/08 04:23:07;;;;;;;;;38.25;36.75;;;;;8.38;64.88;100865.34;5008709;28;45810;-75
2022/12/08 04:25:32;;;;;;;;;47.00;38.50;;;;;8.38;64.87;100859.16;5006704;28;45426;-75
2022/12/08 04:27:58;;;;;;;;;47.00;35.50;;;;;8.38;64.73;100860.03;5001146;28;45314;-75
2022/12/08 04:30:23;;;;;;;;;43.25;32.50;;;;;8.37;64.86;100855.63;5012175;28;45298;-75
2022/12/08 04:32:48;;;;;;;;;38.75;33.50;;;;;8.39;64.65;100859.13;5003162;28;45476;-75
2022/12/08 04:35:14;;;;;;;;;39.75;34.50;;;;;8.37;64.70;100860.06;5007117;28;45523;-75
2022/12/08 04:37:39;;;;;;;;;38.75;36.25;;;;;8.39;64.76;100863.59;5013957;28;45286;-75
2022/12/08 04:40:05;;;;;;;;;51.25;37.00;;;;;8.37;64.93;100852.97;5008987;28;45719;-75
2022/12/08 04:42:30;;;;;;;;;42.25;39.00;;;;;8.27;64.74;100846.06;5010196;28;45816;-75
2022/12/08 04:44:56;;;;;;;;;44.75;36.50;;;;;8.33;64.80;100851.28;5004454;28;45545;-75
2022/12/08 04:47:21;;;;;;;;;50.25;40.00;;;;;8.27;64.83;100840.75;5001403;28;45543;-75
2022/12/08 04:49:47;;;;;;;;;37.50;31.50;;;;;8.31;64.71;100847.78;5009499;28;45543;-75
2022/12/08 04:52:12;;;;;;;;;43.00;36.25;;;;;8.25;64.76;100842.56;5001440;28;45382;-75
2022/12/08 04:54:37;;;;;;;;;48.75;36.75;;;;;8.20;64.71;100836.47;5010678;28;45377;-75
2022/12/08 04:57:03;;;;;;;;;43.25;37.25;;;;;8.15;65.17;100836.56;5003822;28;45458;-75
2022/12/08 04:59:28;;;;;;;;;44.25;37.50;;;;;8.08;65.01;100835.81;5002256;28;46038;-75
2022/12/08 05:01:54;;;;;;;;;32.50;28.75;;;;;8.09;65.06;100837.59;5001112;28;45400;-75
2022/12/08 05:04:19;;;;;;;;;40.50;36.00;;;;;8.06;65.14;100831.47;5004853;28;45523;-76
2022/12/08 05:06:44;;;;;;;;;42.50;37.75;;;;;8.10;64.90;100839.34;5005784;28;45397;-75
2022/12/08 05:09:10;;;;;;;;;49.25;37.00;;;;;8.02;65.08;100825.34;5005618;28;45978;-75
2022/12/08 05:11:35;;;;;;;;;44.00;37.25;;;;;8.06;64.96;100826.16;5008044;28;45376;-75
2022/12/08 05:14:00;;;;;;;;;51.75;40.50;;;;;8.08;65.10;100830.50;5008570;28;45517;-75
2022/12/08 05:16:26;;;;;;;;;42.50;39.75;;;;;8.09;64.97;100826.94;5002159;28;45484;-76
2022/12/08 05:18:51;;;;;;;;;37.50;34.25;;;;;8.09;65.04;100824.28;5003967;28;46717;-75
2022/12/08 05:21:16;;;;;;;;;43.00;37.00;;;;;8.00;64.77;100815.63;5002921;28;45489;-75
2022/12/08 05:23:42;;;;;;;;;39.50;37.00;;;;;8.00;65.13;100826.25;5008133;28;45487;-75
2022/12/08 05:26:07;;;;;;;;;38.75;32.75;;;;;7.98;64.50;100824.53;5005047;28;45383;-75
2022/12/08 05:28:32;;;;;;;;;35.25;24.75;;;;;7.95;64.81;100818.38;5006854;28;45796;-75
2022/12/08 05:30:58;;;;;;;;;35.50;34.25;;;;;7.96;64.83;100828.09;5006864;28;45512;-75
2022/12/08 05:33:23;;;;;;;;;28.25;27.00;;;;;7.96;65.11;100828.09;5011361;28;45463;-75
2022/12/08 05:35:49;;;;;;;;;33.75;30.00;;;;;7.89;64.61;100821.19;5000543;28;47340;-75
2022/12/08 05:38:14;;;;;;;;;41.75;32.75;;;;;7.84;64.75;100826.56;5009369;28;47078;-75
2022/12/08 05:40:40;;;;;;;;;34.50;30.00;;;;;7.75;65.35;100821.41;5001782;28;45519;-75
2022/12/08 05:43:06;;;;;;;;;42.75;32.25;;;;;7.78;65.23;100821.38;5006422;28;45480;-75
2022/12/08 05:45:31;;;;;;;;;41.50;36.50;;;;;7.77;65.46;100822.28;5004168;28;45357;-75
2022/12/08 05:47:57;;;;;;;;;34.75;31.25;;;;;7.82;64.96;100827.50;5008173;28;45416;-75
2022/12/08 05:50:22;;;;;;;;;37.75;29.75;;;;;7.80;65.10;100830.19;5008343;28;45289;-75
2022/12/08 05:52:47;;;;;;;;;37.50;32.75;;;;;7.70;65.04;100828.59;5005656;28;45359;-75
2022/12/08 05:55:13;;;;;;;;;37.00;33.75;;;;;7.71;65.17;100835.69;5006984;28;45464;-75
2022/12/08 05:57:38;;;;;;;;;42.50;36.00;;;;;7.68;65.19;100828.63;5007244;28;46136;-76
2022/12/08 06:00:04;;;;;;;;;33.50;30.00;;;;;7.68;65.56;100828.63;5002774;28;45642;-75
2022/12/08 06:02:29;;;;;;;;;37.00;31.00;;;;;7.66;65.38;100821.63;5002244;28;45984;-76
2022/12/08 06:04:55;;;;;;;;;35.25;30.25;;;;;7.61;65.21;100813.72;5005227;28;45606;-75
2022/12/08 06:07:20;;;;;;;;;42.50;34.25;;;;;7.51;65.37;100812.16;5005994;28;45488;-75
2022/12/08 06:09:45;;;;;;;;;37.75;32.25;;;;;7.47;65.48;100811.34;5007083;28;45608;-75
2022/12/08 06:12:11;;;;;;;;;35.25;31.25;;;;;7.44;65.40;100818.50;5007011;28;45389;-75
2022/12/08 06:14:37;;;;;;;;;32.00;30.50;;;;;7.40;65.41;100809.69;5003724;28;45382;-75
2022/12/08 06:17:03;;;;;;;;;33.75;28.00;;;;;7.35;65.73;100812.44;5008589;28;46279;-75
2022/12/08 06:19:29;;;;;;;;;38.25;32.00;;;;;7.27;65.97;100803.72;5007677;28;45514;-75
2022/12/08 06:21:54;;;;;;;;;34.50;30.50;;;;;7.29;66.08;100806.38;5005992;28;45348;-75
2022/12/08 06:24:19;;;;;;;;;32.00;28.00;;;;;7.24;66.18;100798.47;5000803;28;45487;-75
2022/12/08 06:26:45;;;;;;;;;35.50;29.25;;;;;7.19;66.35;100797.69;5009998;28;45424;-75
2022/12/08 06:29:11;;;;;;;;;31.75;29.75;;;;;7.17;66.28;100796.84;5004723;28;45316;-75
2022/12/08 06:31:37;;;;;;;;;31.00;27.00;;;;;7.15;65.95;100799.50;5008402;28;46079;-75
2022/12/08 06:34:02;;;;;;;;;37.50;31.50;;;;;7.16;66.27;100798.59;4999456;28;46566;-76
2022/12/08 06:36:28;;;;;;;;;34.00;29.25;;;;;7.16;66.08;100789.75;4999996;28;45953;-75
2022/12/08 06:38:53;;;;;;;;;32.75;29.25;;;;;7.19;66.07;100798.53;5005281;28;45321;-75
2022/12/08 06:41:19;;;;;;;;;30.00;27.25;;;;;7.15;66.42;100799.50;5001899;28;45502;-75
2022/12/08 06:43:44;;;;;;;;;20.50;18.25;;;;;7.14;66.33;100796.88;5000604;28;45456;-75
2022/12/08 06:46:14;;;;;;;;;27.75;23.75;;;;;7.15;66.92;100794.22;4999267;28;47927;-74
2022/12/08 06:48:39;;;;;;;;;33.25;30.25;;;;;7.21;66.88;100794.06;5008999;28;45392;-74
2022/12/08 06:51:13;;;;;;;;;22.50;20.00;;;;;7.25;66.51;100797.56;5005208;28;45518;-74
2022/12/08 06:53:40;;;;;;;;;40.75;33.50;;;;;7.32;66.71;100793.03;5001282;28;45625;-75
2022/12/08 06:56:06;;;;;;;;;35.75;31.50;;;;;7.34;66.28;100788.56;5006858;28;45489;-74
2022/12/08 06:58:31;;;;;;;;;29.75;27.75;;;;;7.39;66.17;100789.34;5011043;28;45492;-74
2022/12/08 07:01:03;;;;;;;;;30.50;27.75;;;;;7.44;66.47;100797.25;5013017;28;45389;-74
2022/12/08 07:03:28;;;;;;;;;25.25;24.50;;;;;7.41;65.81;100788.41;5010419;28;45620;-73
2022/12/08 07:05:56;;;;;;;;;34.25;30.75;;;;;7.47;65.76;100799.81;5001956;28;45512;-74
2022/12/08 07:08:22;;;;;;;;;36.25;30.00;;;;;7.44;65.89;100795.44;5012006;28;46070;-75
2022/12/08 07:10:47;;;;;;;;;36.00;27.75;;;;;7.45;66.03;100785.69;5005795;28;45450;-74
2022/12/08 07:13:12;;;;;;;;;32.75;27.75;;;;;7.47;65.79;100790.09;5014307;28;45504;-74
2022/12/08 07:15:37;;;;;;;;;34.25;28.50;;;;;7.49;66.18;100785.63;5010115;28;45447;-73
2022/12/08 07:18:03;;;;;;;;;30.00;26.25;;;;;7.49;65.72;100798.03;5005565;28;46566;-74
2022/12/08 07:20:28;;;;;;;;;36.25;32.75;;;;;7.40;65.50;100793.75;5008574;28;45352;-74
2022/12/08 07:22:53;;;;;;;;;30.75;25.00;;;;;7.38;66.11;100801.78;5011008;28;45637;-76
2022/12/08 07:25:19;;;;;;;;;29.50;26.00;;;;;7.33;65.96;100792.97;5004349;28;45381;-74
2022/12/08 07:27:45;;;;;;;;;30.50;27.25;;;;;7.36;65.62;100798.25;5007688;28;45523;-74
2022/12/08 07:30:11;;;;;;;;;22.75;19.50;;;;;7.33;65.77;100797.41;5007404;28;45671;-73
2022/12/08 07:32:38;;;;;;;;;21.50;21.50;;;;;7.32;65.72;100795.69;4994235;28;47065;-74
2022/12/08 07:35:04;;;;;;;;;30.50;25.50;;;;;7.32;65.52;100790.38;5013947;28;45401;-74
2022/12/08 07:37:32;;;;;;;;;29.00;24.75;;;;;7.32;66.11;100796.56;5006440;28;45734;-73
2022/12/08 07:39:57;;;;;;;;;31.50;26.75;;;;;7.24;65.46;100793.16;5013622;28;45395;-76
2022/12/08 07:42:23;;;;;;;;;33.00;29.25;;;;;7.14;65.36;100788.91;5008090;28;45459;-73
2022/12/08 07:44:48;;;;;;;;;28.50;26.25;;;;;7.13;65.31;100789.81;5013033;28;45443;-73
2022/12/08 07:47:13;;;;;;;;;30.25;25.75;;;;;7.09;65.65;100786.34;5009339;28;45746;-74
2022/12/08 07:49:39;;;;;;;;;26.25;25.75;;;;;7.11;65.47;100800.44;5016425;28;45401;-74
2022/12/08 07:52:04;;;;;;;;;26.00;22.25;;;;;7.14;65.75;100803.06;5009523;28;45463;-73
2022/12/08 07:54:29;;;;;;;;;26.50;22.00;;;;;7.18;65.70;100795.91;5009245;28;45426;-73
2022/12/08 07:56:56;;;;;;;;;26.00;20.75;;;;;7.20;65.26;100786.13;5016706;28;45841;-73
2022/12/08 07:59:22;;;;;;;;;29.00;25.25;;;;;7.17;65.47;100778.25;5011173;28;46126;-73
2022/12/08 08:01:47;;;;;;;;;25.00;22.50;;;;;7.28;65.48;100791.31;5001106;28;45504;-73
2022/12/08 08:04:12;;;;;;;;;25.50;21.75;;;;;7.17;65.19;100783.56;5004525;28;46164;-74
2022/12/08 08:06:38;;;;;;;;;20.75;18.75;;;;;7.16;64.97;100789.75;5001552;28;45545;-74
2022/12/08 08:09:04;;;;;;;;;20.00;20.00;;;;;7.17;65.49;100788.88;5004043;28;45326;-73
2022/12/08 08:11:29;;;;;;;;;26.75;20.00;;;;;7.15;64.83;100782.69;5002692;28;45330;-73
2022/12/08 08:13:55;;;;;;;;;23.50;20.75;;;;;7.14;65.11;100783.63;5007231;28;45329;-74
2022/12/08 08:16:21;;;;;;;;;27.75;24.75;;;;;7.18;65.76;100778.22;5007587;28;45486;-73
2022/12/08 08:18:48;;;;;;;;;32.25;28.75;;;;;7.21;65.68;100777.28;5010889;28;45566;-74
2022/12/08 08:21:13;;;;;;;;;33.25;28.50;;;;;7.23;65.21;100778.13;5009498;28;45422;-74
2022/12/08 08:23:39;;;;;;;;;33.50;28.50;;;;;7.28;65.27;100776.25;5004174;28;46072;-74
2022/12/08 08:26:05;;;;;;;;;28.00;22.00;;;;;7.30;65.13;100768.25;5006578;28;45523;-73
2022/12/08 08:28:31;;;;;;;;;20.50;20.50;;;;;7.33;64.88;100782.34;5009929;28;45485;-73
2022/12/08 08:30:57;;;;;;;;;29.50;24.50;;;;;7.32;64.96;100783.28;5007834;28;45379;-73
2022/12/08 08:33:22;;;;;;;;;24.50;21.25;;;;;7.28;64.91;100778.91;5007371;28;45793;-74
2022/12/08 08:35:48;;;;;;;;;24.25;20.75;;;;;7.29;64.74;100780.69;5004175;28;46687;-72
2022/12/08 08:38:13;;;;;;;;;29.25;28.00;;;;;7.30;64.96;100781.53;5011460;28;45447;-72
2022/12/08 08:40:39;;;;;;;;;28.50;19.75;;;;;7.28;65.20;100778.03;5012454;28;45635;-72
2022/12/08 08:43:05;;;;;;;;;26.75;24.25;;;;;7.22;64.54;100758.66;4996680;28;46046;-72
2022/12/08 08:45:32;;;;;;;;;20.25;16.50;;;;;7.27;64.94;100763.91;5011299;28;45712;-72
2022/12/08 08:47:58;;;;;;;;;16.25;14.25;;;;;7.23;64.69;100754.22;5014290;28;45601;-72
2022/12/08 08:50:23;;;;;;;;;18.25;16.00;;;;;7.10;64.10;100748.28;5016034;28;45554;-72
2022/12/08 08:52:49;;;;;;;;;23.50;17.25;;;;;7.08;64.59;100758.03;5017496;28;45363;-72
2022/12/08 08:55:14;;;;;;;;;22.00;17.75;;;;;7.05;64.60;100756.31;5016560;28;45457;-72
2022/12/08 08:57:40;;;;;;;;;20.00;20.00;;;;;7.07;64.89;100752.75;4991487;28;45474;-71
2022/12/08 09:00:08;;;;;;;;;27.75;24.25;;;;;7.05;64.24;100760.75;5013590;28;45593;-72
2022/12/08 09:02:34;;;;;;;;;23.75;16.75;;;;;7.07;64.47;100763.38;5007170;28;46244;-72
2022/12/08 09:04:59;;;;;;;;;22.00;18.00;;;;;7.05;64.37;100753.66;5011040;28;45684;-72
2022/12/08 09:07:25;;;;;;;;;17.75;16.00;;;;;7.11;64.58;100759.78;5010963;28;45682;-72
2022/12/08 09:09:50;;;;;;;;;24.00;17.25;;;;;7.12;64.81;100756.22;5013044;28;45305;-72
2022/12/08 09:12:15;;;;;;;;;11.75;11.25;;;;;7.06;64.65;100754.53;5006647;28;45516;-71
2022/12/08 09:14:41;;;;;;;;;15.75;14.00;;;;;7.05;64.54;100758.09;5009688;28;45310;-72
2022/12/08 09:17:07;;;;;;;;;21.00;16.25;;;;;7.05;64.40;100756.31;5012385;28;45510;-72
2022/12/08 09:19:33;;;;;;;;;20.25;16.00;;;;;7.12;64.96;100761.53;5013419;28;45543;-72
2022/12/08 09:21:58;;;;;;;;;24.00;19.00;;;;;7.11;64.92;100765.06;5001794;28;46169;-72
2022/12/08 09:24:24;;;;;;;;;24.00;20.00;;;;;7.12;64.28;100756.22;5014344;28;45400;-71
2022/12/08 09:26:49;;;;;;;;;23.25;17.00;;;;;7.12;64.37;100758.88;5008014;28;45554;-72
2022/12/08 09:29:16;;;;;;;;;25.25;23.25;;;;;7.14;64.34;100754.41;5000010;28;45527;-73
2022/12/08 09:31:42;;;;;;;;;21.75;19.50;;;;;7.17;64.62;100744.59;4999502;28;45386;-72
2022/12/08 09:34:08;;;;;;;;;24.25;22.75;;;;;7.21;64.39;100746.28;4999894;28;45405;-72
2022/12/08 09:36:34;;;;;;;;;19.75;17.75;;;;;7.18;64.12;100745.47;4996931;28;45456;-72
2022/12/08 09:38:59;;;;;;;;;18.25;17.50;;;;;7.20;64.35;100754.28;5005850;28;45314;-72
2022/12/08 09:41:36;;;;;;;;;23.75;21.00;;;;;7.22;64.74;100752.50;5003247;28;45543;-72
2022/12/08 09:44:39;;;;;;;;;22.00;19.75;;;;;7.21;64.23;100748.94;5006367;28;45467;-72
2022/12/08 09:47:15;;;;;;;;;27.75;23.25;;;;;7.13;64.12;100747.34;4999624;28;45617;-72
2022/12/08 09:49:45;;;;;;;;;21.00;18.25;;;;;7.10;64.45;100747.38;5011834;28;45384;-72
2022/12/08 09:52:37;;;;;;;;;25.25;23.00;;;;;7.11;64.71;100743.84;5007392;28;45948;-72
2022/12/08 09:55:14;;;;;;;;;21.50;20.75;;;;;7.13;64.89;100739.38;5007563;28;45739;-72
2022/12/08 09:57:39;;;;;;;;;24.00;20.50;;;;;7.17;64.47;100735.78;5007526;28;45579;-72
2022/12/08 10:00:05;;;;;;;;;23.50;23.50;;;;;7.15;64.71;100722.53;5002211;28;45486;-72
2022/12/08 10:02:31;;;;;;;;;25.25;22.75;;;;;7.20;64.49;100730.38;5010451;28;46361;-72
2022/12/08 10:04:57;;;;;;;;;18.00;15.50;;;;;7.21;64.75;100729.50;5004011;28;45416;-72
2022/12/08 10:07:47;;;;;;;;;27.00;21.00;;;;;7.25;64.29;100723.25;4999995;28;45542;-71
2022/12/08 10:10:33;;;;;;;;;28.00;24.50;;;;;7.28;64.42;100724.94;5005383;28;45460;-72
2022/12/08 10:13:22;;;;;;;;;29.50;26.75;;;;;7.31;64.81;100724.88;5008591;28;46100;-72
2022/12/08 10:15:59;;;;;;;;;28.00;25.50;;;;;7.35;64.83;100715.94;5002683;28;45550;-72
2022/12/08 10:18:30;;;;;;;;;26.50;24.50;;;;;7.37;64.28;100709.72;5004446;28;45337;-71
2022/12/08 10:21:16;;;;;;;;;34.25;30.50;;;;;7.36;64.13;100715.06;5011376;28;45392;-72
2022/12/08 10:23:47;;;;;;;;;33.75;33.00;;;;;7.28;63.90;100711.66;5008538;28;47402;-72
2022/12/08 10:26:18;;;;;;;;;38.50;33.25;;;;;7.21;64.44;100693.19;5009037;28;45665;-72
2022/12/08 10:28:43;;;;;;;;;10.50;7.75;;;;;7.28;64.59;100693.94;5006521;28;45932;-72
2022/12/08 10:31:23;;;;;;;;;34.50;29.25;;;;;7.32;64.64;100693.00;5006499;28;45420;-72
2022/12/08 10:33:58;;;;;;;;;34.25;30.25;;;;;7.33;63.88;100696.50;5010498;28;45722;-72
2022/12/08 10:36:53;;;;;;;;;33.75;31.00;;;;;7.36;64.51;100692.00;5005846;28;45530;-72
2022/12/08 10:39:39;;;;;;;;;35.75;32.00;;;;;7.42;64.03;100691.91;5005040;28;45459;-72
2022/12/08 10:42:14;;;;;;;;;34.50;31.00;;;;;7.41;63.91;100686.63;5008541;28;45502;-72
2022/12/08 10:44:56;;;;;;;;;32.25;30.75;;;;;7.33;64.10;100681.44;5016227;28;46397;-72
2022/12/08 10:47:24;;;;;;;;;32.75;26.25;;;;;7.32;63.74;100679.72;5008035;28;45474;-72
2022/12/08 10:50:18;;;;;;;;;30.25;27.25;;;;;7.28;64.31;100666.53;5004283;28;45410;-72
2022/12/08 10:52:44;;;;;;;;;32.00;29.25;;;;;7.34;64.40;100672.59;5008445;28;45567;-72
2022/12/08 10:55:20;;;;;;;;;36.75;36.25;;;;;7.38;64.20;100671.63;5005366;28;46288;-72
2022/12/08 10:57:47;;;;;;;;;31.50;30.00;;;;;7.37;63.81;100675.19;5001746;28;46979;-71
2022/12/08 11:00:19;;;;;;;;;35.25;29.25;;;;;7.34;63.92;100671.72;5007841;28;45979;-72
2022/12/08 11:02:57;;;;;;;;;16.50;8.75;;;;;7.29;63.88;100655.00;5008855;28;45454;-73
2022/12/08 11:05:28;;;;;;;;;33.75;30.00;;;;;7.27;64.01;100662.09;5012848;28;46252;-72
2022/12/08 11:07:54;;;;;;;;;37.50;34.00;;;;;7.22;64.44;100651.59;4999707;28;45554;-72
2022/12/08 11:10:29;;;;;;;;;34.00;27.00;;;;;7.19;64.04;100651.66;5005247;28;45499;-71
2022/12/08 11:12:59;;;;;;;;;36.50;30.75;;;;;7.16;64.56;100638.44;5005119;28;45452;-71
2022/12/08 11:15:24;;;;;;;;;36.50;31.00;;;;;7.23;64.40;100650.69;5010422;28;45579;-72
2022/12/08 11:18:05;;;;;;;;;33.75;31.00;;;;;7.25;64.32;100646.25;5006250;28;45843;-71
2022/12/08 11:20:39;;;;;;;;;34.25;30.25;;;;;7.24;64.58;100640.03;5004226;28;45595;-72
2022/12/08 11:23:19;;;;;;;;;34.00;32.00;;;;;7.31;64.65;100635.47;5007562;28;45500;-72
2022/12/08 11:25:45;;;;;;;;;39.75;35.75;;;;;7.34;64.27;100630.09;5010084;28;45505;-72
2022/12/08 11:28:11;;;;;;;;;33.25;30.75;;;;;7.33;64.25;100640.75;4999586;28;45250;-72
2022/12/08 11:30:49;;;;;;;;;30.25;26.00;;;;;7.30;64.19;100639.06;5004707;28;45782;-71